Time;durP1;ratioP1;P1;durP2;ratioP2;P2;SDS_P1;SDS_P2;PMS_P1;PMS_P2;Temp;Humidity;BMP_temperature;BMP_pressure;BME280_temperature;BME280_humidity;BME280_pressure;Samples;Min_cycle;Max_cycle;Signal;HPM_P1;HPM_P2
2021/06/30 00:02:19;;;;;;;14.20;8.20;;;;;;;21.45;100.00;100254.06;4949975;28;20040;-72
2021/06/30 00:04:44;;;;;;;14.38;7.47;;;;;;;21.38;100.00;100252.31;4953263;28;20430;-71
2021/06/30 00:07:11;;;;;;;13.05;8.30;;;;;;;21.41;100.00;100254.16;4952928;28;20512;-71
2021/06/30 00:09:37;;;;;;;14.48;8.05;;;;;;;21.40;100.00;100252.66;4955953;28;20090;-72
2021/06/30 00:12:03;;;;;;;22.77;8.32;;;;;;;21.30;100.00;100248.25;4936058;29;20035;-72
2021/06/30 00:14:29;;;;;;;11.27;8.32;;;;;;;21.30;100.00;100250.22;4933406;29;20131;-73
2021/06/30 00:16:55;;;;;;;33.90;9.32;;;;;;;21.26;100.00;100249.56;4951224;29;20499;-72
2021/06/30 00:19:22;;;;;;;12.13;9.07;;;;;;;21.25;100.00;100237.81;4952435;28;20027;-72
2021/06/30 00:21:48;;;;;;;10.02;7.90;;;;;;;21.14;100.00;100237.38;4935263;29;20122;-73
2021/06/30 00:24:13;;;;;;;9.02;8.07;;;;;;;21.10;100.00;100239.44;4954119;28;20126;-72
2021/06/30 00:26:39;;;;;;;17.65;8.60;;;;;;;21.03;100.00;100228.72;4941174;29;20028;-72
2021/06/30 00:29:06;;;;;;;15.57;8.40;;;;;;;21.06;100.00;100224.34;4939021;29;20039;-71
2021/06/30 00:31:32;;;;;;;12.23;8.95;;;;;;;21.03;100.00;100225.97;4951525;28;20074;-73
2021/06/30 00:34:04;;;;;;;13.15;9.02;;;;;;;21.03;100.00;100234.19;4950175;28;20454;-74
2021/06/30 00:36:32;;;;;;;13.10;8.80;;;;;;;20.99;100.00;100228.03;4942797;28;20643;-71
2021/06/30 00:38:59;;;;;;;14.30;9.25;;;;;;;20.99;100.00;100225.28;4949500;28;20039;-71
2021/06/30 00:41:25;;;;;;;12.55;8.73;;;;;;;20.98;100.00;100226.47;4960257;28;20043;-71
2021/06/30 00:43:50;;;;;;;14.05;9.70;;;;;;;20.98;100.00;100210.03;4943629;28;20054;-72
2021/06/30 00:46:27;;;;;;;16.02;9.02;;;;;;;20.90;100.00;100213.44;4945160;28;20090;-71
2021/06/30 00:48:52;;;;;;;12.45;9.00;;;;;;;20.87;100.00;100209.59;4945914;29;20406;-71
2021/06/30 00:51:18;;;;;;;10.13;8.88;;;;;;;20.82;100.00;100206.63;4943504;29;20039;-71
2021/06/30 00:53:43;;;;;;;13.05;9.00;;;;;;;20.76;100.00;100214.59;4945743;28;20130;-74
2021/06/30 00:56:09;;;;;;;10.85;8.50;;;;;;;20.73;100.00;100209.25;4933814;29;20036;-71
2021/06/30 00:58:34;;;;;;;10.25;9.15;;;;;;;20.72;100.00;100210.44;4971215;28;20102;-71
2021/06/30 01:01:00;;;;;;;20.75;9.15;;;;;;;20.69;100.00;100209.34;4943919;28;20070;-71
2021/06/30 01:03:25;;;;;;;16.25;8.45;;;;;;;20.66;100.00;100207.47;4935358;29;20384;-71
2021/06/30 01:05:51;;;;;;;14.00;9.25;;;;;;;20.74;100.00;100208.03;4942501;28;20031;-72
2021/06/30 01:08:16;;;;;;;16.80;9.65;;;;;;;20.67;100.00;100204.28;4948263;29;20717;-71
2021/06/30 01:10:42;;;;;;;13.73;9.50;;;;;;;20.64;100.00;100196.94;4949643;28;20062;-71
2021/06/30 01:13:07;;;;;;;10.82;9.25;;;;;;;20.62;100.00;100199.34;4946217;28;20035;-72
2021/06/30 01:15:45;;;;;;;11.57;8.93;;;;;;;20.56;100.00;100195.63;4947454;28;20113;-74
2021/06/30 01:18:11;;;;;;;12.65;9.30;;;;;;;20.61;100.00;100202.53;4949111;28;20135;-73
2021/06/30 01:20:36;;;;;;;11.43;8.80;;;;;;;20.61;100.00;100199.78;4949754;28;20102;-74
2021/06/30 01:23:10;;;;;;;16.50;9.20;;;;;;;20.57;100.00;100191.69;4950185;28;20039;-72
2021/06/30 01:25:35;;;;;;;14.88;8.55;;;;;;;20.56;100.00;100186.63;4950933;28;20036;-74
2021/06/30 01:28:02;;;;;;;16.75;9.52;;;;;;;20.53;100.00;100192.97;4948334;28;20086;-73
2021/06/30 01:30:28;;;;;;;15.30;9.52;;;;;;;20.51;100.00;100190.69;4932884;29;20075;-73
2021/06/30 01:32:53;;;;;;;20.20;9.35;;;;;;;20.55;100.00;100201.53;4935123;29;20074;-74
2021/06/30 01:35:22;;;;;;;15.45;9.85;;;;;;;20.61;100.00;100194.31;4960211;23;20055;-75
2021/06/30 01:37:49;;;;;;;15.90;10.73;;;;;;;20.65;100.00;100198.47;4943362;28;20038;-75
2021/06/30 01:40:15;;;;;;;15.52;9.88;;;;;;;20.63;100.00;100200.13;4956243;28;20097;-74
2021/06/30 01:42:45;;;;;;;19.67;9.95;;;;;;;20.61;100.00;100197.06;4946152;28;20038;-76
2021/06/30 01:45:11;;;;;;;13.27;9.55;;;;;;;20.64;100.00;100199.69;4946172;28;20579;-74
2021/06/30 01:47:38;;;;;;;14.60;10.20;;;;;;;20.70;100.00;100199.91;4944240;28;20043;-75
2021/06/30 01:50:04;;;;;;;14.57;10.77;;;;;;;20.72;100.00;100196.75;4928593;29;20087;-74
2021/06/30 01:52:30;;;;;;;16.50;10.85;;;;;;;20.75;100.00;100206.84;4919922;29;20036;-74
2021/06/30 01:54:56;;;;;;;20.70;11.80;;;;;;;20.77;100.00;100207.16;4932576;29;20381;-76
2021/06/30 01:57:21;;;;;;;16.35;10.55;;;;;;;20.81;100.00;100219.53;4947684;28;20035;-74
2021/06/30 01:59:47;;;;;;;16.27;10.35;;;;;;;20.82;100.00;100212.09;4930419;29;20127;-75
2021/06/30 02:02:13;;;;;;;15.65;11.57;;;;;;;20.84;100.00;100210.47;4919171;29;20040;-74
2021/06/30 02:04:38;;;;;;;13.38;11.15;;;;;;;20.86;100.00;100215.50;4939319;29;20134;-75
2021/06/30 02:07:05;;;;;;;16.83;12.57;;;;;;;20.93;100.00;100220.75;4940109;29;20435;-74
2021/06/30 02:09:31;;;;;;;18.75;13.75;;;;;;;20.91;100.00;100221.22;4930999;29;20123;-74
2021/06/30 02:11:57;;;;;;;17.27;12.30;;;;;;;20.85;100.00;100222.19;4934662;29;20119;-75
2021/06/30 02:14:22;;;;;;;22.90;13.15;;;;;;;20.91;100.00;100232.16;4937024;29;20066;-74
2021/06/30 02:16:48;;;;;;;18.02;13.82;;;;;;;20.90;100.00;100224.38;4932451;29;20115;-75
2021/06/30 02:19:13;;;;;;;21.85;11.43;;;;;;;20.93;100.00;100221.53;4939204;29;20626;-74
2021/06/30 02:21:39;;;;;;;14.00;9.93;;;;;;;20.91;100.00;100221.22;4947161;28;20070;-74
2021/06/30 02:24:05;;;;;;;17.67;10.63;;;;;;;20.92;100.00;100221.97;4918756;29;20039;-74
2021/06/30 02:26:31;;;;;;;18.25;11.68;;;;;;;20.97;100.00;100233.16;4933741;29;20039;-74
2021/06/30 02:28:57;;;;;;;34.90;12.40;;;;;;;20.92;100.00;100220.03;4932255;29;20524;-74
2021/06/30 02:31:23;;;;;;;20.25;12.40;;;;;;;20.92;100.00;100219.25;4941462;29;20071;-74
2021/06/30 02:33:49;;;;;;;24.20;12.55;;;;;;;20.91;100.00;100206.75;4934282;29;20041;-75
2021/06/30 02:36:15;;;;;;;21.27;12.77;;;;;;;20.90;100.00;100219.69;4927753;29;20095;-74
2021/06/30 02:38:41;;;;;;;32.70;14.25;;;;;;;20.97;100.00;100224.94;4926104;29;20502;-75
2021/06/30 02:41:06;;;;;;;35.88;14.07;;;;;;;20.96;100.00;100209.75;4952310;28;20028;-74
2021/06/30 02:43:32;;;;;;;28.00;16.42;;;;;;;20.96;100.00;100207.00;4927671;29;20051;-74
2021/06/30 02:45:58;;;;;;;28.20;16.40;;;;;;;20.99;100.00;100213.56;4926698;29;20031;-74
2021/06/30 02:48:25;;;;;;;26.27;16.67;;;;;;;21.00;100.00;100207.63;4930787;29;20421;-74
2021/06/30 02:50:54;;;;;;;33.17;17.58;;;;;;;21.02;100.00;100204.50;4942612;29;20034;-74
2021/06/30 02:53:19;;;;;;;38.65;16.60;;;;;;;21.00;100.00;100201.41;4930210;29;20115;-74
2021/06/30 02:55:45;;;;;;;32.55;17.45;;;;;;;21.01;100.00;100201.00;4949040;28;20539;-74
2021/06/30 02:58:10;;;;;;;33.70;19.20;;;;;;;21.03;100.00;100198.59;4955630;28;20035;-74
2021/06/30 03:00:36;;;;;;;33.80;19.63;;;;;;;21.08;100.00;100200.78;4938760;29;20039;-75
2021/06/30 03:03:01;;;;;;;45.58;22.00;;;;;;;21.09;100.00;100210.53;4949178;28;20051;-75
2021/06/30 03:05:27;;;;;;;58.80;25.73;;;;;;;21.10;100.00;100203.09;4921781;29;20031;-74
2021/06/30 03:07:53;;;;;;;60.03;26.75;;;;;;;21.08;100.00;100200.78;4948180;29;20081;-74
2021/06/30 03:10:19;;;;;;;56.10;25.63;;;;;;;21.10;100.00;100203.84;4936305;29;20127;-75
2021/06/30 03:12:46;;;;;;;64.80;30.02;;;;;;;21.17;100.00;100205.63;4933315;29;20040;-75
2021/06/30 03:15:15;;;;;;;68.68;30.35;;;;;;;21.15;100.00;100202.53;4933278;29;20035;-75
2021/06/30 03:17:41;;;;;;;63.47;28.92;;;;;;;21.13;100.00;100202.22;4938028;28;20060;-74
2021/06/30 03:20:12;;;;;;;65.70;29.92;;;;;;;21.22;100.00;100214.06;4950707;29;20156;-74
2021/06/30 03:22:39;;;;;;;;;;;;;;;21.03;100.00;100217.75;4927292;29;20035;-74
2021/06/30 03:25:07;;;;;;;57.13;25.30;;;;;;;21.13;100.00;100216.69;4937482;29;19918;-74
2021/06/30 03:27:32;;;;;;;64.43;26.75;;;;;;;21.17;100.00;100209.13;4945152;28;20059;-74
2021/06/30 03:29:58;;;;;;;66.78;29.83;;;;;;;21.19;100.00;100214.94;4931564;29;20738;-74
2021/06/30 03:32:23;;;;;;;68.43;29.60;;;;;;;21.17;100.00;100209.13;4940822;29;20035;-74
2021/06/30 03:34:48;;;;;;;59.38;28.50;;;;;;;21.21;100.00;100212.53;4934627;29;20039;-75
2021/06/30 03:37:14;;;;;;;59.22;28.88;;;;;;;21.24;100.00;100216.34;4923463;29;20066;-75
2021/06/30 03:39:39;;;;;;;59.40;29.42;;;;;;;21.27;100.00;100213.50;4937613;29;20042;-74
2021/06/30 03:42:05;;;;;;;59.42;29.13;;;;;;;21.27;100.00;100218.22;4955458;28;20051;-75
2021/06/30 03:44:31;;;;;;;58.53;28.25;;;;;;;21.30;100.00;100220.06;4935203;29;20020;-74
2021/06/30 03:46:56;;;;;;;61.70;30.17;;;;;;;21.29;100.00;100213.81;4928445;29;20235;-74
2021/06/30 03:49:22;;;;;;;62.83;28.52;;;;;;;21.32;100.00;100212.19;4933443;29;20020;-74
2021/06/30 03:51:48;;;;;;;54.50;28.25;;;;;;;21.28;100.00;100217.78;4933918;29;20402;-74
2021/06/30 03:54:13;;;;;;;50.97;26.88;;;;;;;21.29;100.00;100213.81;4923635;29;20506;-74
2021/06/30 03:56:39;;;;;;;51.05;26.80;;;;;;;21.29;100.00;100213.81;4945714;28;20042;-74
2021/06/30 03:59:04;;;;;;;52.72;26.45;;;;;;;21.31;100.00;100216.91;4934043;29;20040;-74
2021/06/30 04:01:30;;;;;;;49.38;25.70;;;;;;;21.27;100.00;100215.50;4928786;29;20075;-75
2021/06/30 04:03:58;;;;;;;48.92;25.35;;;;;;;21.28;100.00;100219.75;4933835;29;20042;-74
2021/06/30 04:06:24;;;;;;;51.58;26.52;;;;;;;21.38;100.00;100216.69;4938721;29;20418;-75
2021/06/30 04:08:49;;;;;;;55.15;27.33;;;;;;;21.34;100.00;100213.28;4937279;29;20034;-74
2021/06/30 04:11:16;;;;;;;66.78;29.48;;;;;;;21.32;100.00;100223.94;4930147;29;20036;-74
2021/06/30 04:13:42;;;;;;;66.07;29.00;;;;;;;21.42;100.00;100222.06;4931132;29;20095;-74
2021/06/30 04:16:07;;;;;;;67.45;29.83;;;;;;;21.34;100.00;100216.03;4937234;28;20027;-74
2021/06/30 04:18:33;;;;;;;70.60;30.45;;;;;;;21.39;100.00;100217.44;4933218;29;20547;-74
2021/06/30 04:20:59;;;;;;;71.20;30.27;;;;;;;21.34;100.00;100218.78;4930173;29;20039;-75
2021/06/30 04:23:24;;;;;;;66.75;27.60;;;;;;;21.31;100.00;100225.13;4935434;29;20102;-74
2021/06/30 04:25:50;;;;;;;63.58;28.27;;;;;;;21.28;100.00;100228.75;4946951;28;20494;-74
2021/06/30 04:28:15;;;;;;;65.43;28.10;;;;;;;21.33;100.00;100217.22;4931458;29;20475;-74
2021/06/30 04:30:42;;;;;;;64.78;29.42;;;;;;;21.36;100.00;100226.56;4930708;29;20024;-75
2021/06/30 04:33:08;;;;;;;65.57;28.52;;;;;;;21.44;100.00;100223.16;4932442;29;20090;-74
2021/06/30 04:35:34;;;;;;;58.75;26.77;;;;;;;21.41;100.00;100217.78;4930104;29;20735;-75
2021/06/30 04:38:04;;;;;;;56.42;26.73;;;;;;;21.45;100.00;100219.19;4938767;29;20040;-75
2021/06/30 04:40:29;;;;;;;55.33;26.55;;;;;;;21.52;100.00;100218.22;4935766;29;20067;-75
2021/06/30 04:42:55;;;;;;;57.92;26.17;;;;;;;21.45;100.00;100226.66;4933493;29;20063;-74
2021/06/30 04:45:21;;;;;;;58.58;26.98;;;;;;;21.41;100.00;100224.03;4940815;29;20561;-74
2021/06/30 04:47:47;;;;;;;59.15;27.13;;;;;;;21.41;100.00;100215.81;4932781;29;20040;-75
2021/06/30 04:50:13;;;;;;;58.13;25.85;;;;;;;21.48;100.00;100215.59;4938100;29;20028;-74
2021/06/30 04:52:39;;;;;;;56.28;26.27;;;;;;;21.43;100.00;100213.41;4922736;29;20027;-74
2021/06/30 04:55:06;;;;;;;59.25;26.73;;;;;;;21.46;100.00;100222.72;4925865;29;20128;-75
2021/06/30 04:57:32;;;;;;;54.92;25.70;;;;;;;21.43;100.00;100213.41;4933735;29;20070;-74
2021/06/30 04:59:57;;;;;;;53.55;26.05;;;;;;;21.51;100.00;100220.19;4933004;29;20059;-74
2021/06/30 05:02:23;;;;;;;51.85;25.30;;;;;;;21.49;100.00;100217.13;4926846;29;20035;-74
2021/06/30 05:04:48;;;;;;;56.25;24.95;;;;;;;21.50;100.00;100213.16;4932404;29;20039;-76
2021/06/30 05:07:14;;;;;;;57.33;26.05;;;;;;;21.58;100.00;100213.72;4931672;29;20039;-74
2021/06/30 05:09:39;;;;;;;53.38;25.35;;;;;;;21.63;100.00;100207.69;4928504;29;20066;-74
2021/06/30 05:12:05;;;;;;;52.28;25.77;;;;;;;21.69;100.00;100208.66;4937492;29;20062;-75
2021/06/30 05:14:30;;;;;;;54.20;25.35;;;;;;;21.78;100.00;100214.22;4929426;29;20036;-74
2021/06/30 05:16:56;;;;;;;53.92;25.38;;;;;;;21.79;100.00;100224.00;4929012;29;20027;-75
2021/06/30 05:19:22;;;;;;;56.90;26.58;;;;;;;21.76;100.00;100207.66;4925208;29;20105;-74
2021/06/30 05:21:48;;;;;;;49.63;25.60;;;;;;;21.81;100.00;100215.38;4935975;28;20107;-74
2021/06/30 05:24:13;;;;;;;51.47;25.25;;;;;;;21.83;100.00;100210.22;4926946;29;20122;-73
2021/06/30 05:26:39;;;;;;;57.15;25.65;;;;;;;21.87;100.00;100213.59;4924498;29;20063;-74
2021/06/30 05:29:05;;;;;;;47.17;24.45;;;;;;;21.87;100.00;100216.34;4931428;29;20046;-74
2021/06/30 05:31:30;;;;;;;46.65;24.65;;;;;;;21.89;100.00;100217.41;4931543;29;20555;-74
2021/06/30 05:33:56;;;;;;;50.53;25.45;;;;;;;21.89;100.00;100211.19;4925944;29;20379;-74
2021/06/30 05:36:21;;;;;;;41.30;23.20;;;;;;;21.90;100.00;100208.00;4933506;29;20101;-74
2021/06/30 05:38:46;;;;;;;45.83;24.77;;;;;;;21.93;100.00;100201.59;4931051;29;20067;-74
2021/06/30 05:41:12;;;;;;;45.45;23.67;;;;;;;21.96;100.00;100202.72;4931760;29;20036;-74
2021/06/30 05:43:38;;;;;;;46.55;23.30;;;;;;;22.03;100.00;100203.22;4928105;29;20027;-73
2021/06/30 05:46:04;;;;;;;48.55;23.33;;;;;;;22.08;100.00;100201.91;4919700;29;20039;-74
2021/06/30 05:48:30;;;;;;;53.78;27.73;;;;;;;22.05;100.00;100200.03;4930321;29;20514;-74
2021/06/30 05:50:55;;;;;;;61.67;27.33;;;;;;;22.10;100.00;100200.25;4937621;29;20031;-74
2021/06/30 05:53:21;;;;;;;60.63;27.02;;;;;;;22.04;100.00;100204.78;4922702;29;20044;-74
2021/06/30 05:55:46;;;;;;;58.92;27.95;;;;;;;22.08;100.00;100202.69;4927980;29;20032;-74
2021/06/30 05:58:12;;;;;;;58.65;28.50;;;;;;;21.99;100.00;100208.06;4926478;29;20043;-74
2021/06/30 06:00:38;;;;;;;50.97;25.90;;;;;;;22.05;100.00;100198.06;4930473;29;20031;-73
2021/06/30 06:03:03;;;;;;;46.13;24.80;;;;;;;22.13;100.00;100201.34;4929145;29;20051;-73
2021/06/30 06:05:29;;;;;;;49.35;25.05;;;;;;;21.97;100.00;100210.50;4928286;29;20036;-73
2021/06/30 06:07:54;;;;;;;47.05;25.75;;;;;;;21.99;100.00;100207.31;4934215;29;20523;-73
2021/06/30 06:10:19;;;;;;;40.58;22.45;;;;;;;22.05;100.00;100205.53;4940184;29;20032;-73
2021/06/30 06:12:45;;;;;;;36.70;22.05;;;;;;;21.94;100.00;100207.88;4951053;28;20413;-73
2021/06/30 06:15:11;;;;;;;37.08;21.13;;;;;;;21.94;100.00;100203.16;4929465;29;20051;-73
2021/06/30 06:17:37;;;;;;;37.70;21.08;;;;;;;21.90;100.00;100201.72;4925833;29;20106;-73
2021/06/30 06:20:05;;;;;;;34.75;19.77;;;;;;;21.88;100.00;100198.66;4932904;28;20099;-73
2021/06/30 06:22:31;;;;;;;32.97;19.60;;;;;;;21.89;100.00;100197.47;4945691;28;20047;-73
2021/06/30 06:24:56;;;;;;;32.67;19.52;;;;;;;21.92;100.00;100193.84;4936521;29;20039;-74
2021/06/30 06:27:23;;;;;;;34.75;21.58;;;;;;;22.00;100.00;100200.63;4928642;29;20032;-73
2021/06/30 06:29:50;;;;;;;35.15;20.75;;;;;;;22.03;100.00;100196.97;4936155;29;20120;-74
2021/06/30 06:32:15;;;;;;;32.80;19.27;;;;;;;22.13;100.00;100190.34;4936976;29;20032;-74
2021/06/30 06:34:41;;;;;;;32.67;20.05;;;;;;;22.17;100.00;100199.25;4930906;29;20090;-74
2021/06/30 06:37:11;;;;;;;30.88;19.10;;;;;;;22.24;100.00;100202.50;4943977;29;20118;-73
2021/06/30 06:39:37;;;;;;;35.23;20.47;;;;;;;22.32;100.00;100203.78;4931385;29;20123;-74
2021/06/30 06:42:03;;;;;;;31.85;19.38;;;;;;;22.28;100.00;100199.63;4938447;29;20114;-74
2021/06/30 06:44:28;;;;;;;28.90;19.65;;;;;;;22.32;100.00;100194.78;4942286;29;20129;-74
2021/06/30 06:46:54;;;;;;;30.67;19.83;;;;;;;22.32;100.00;100195.56;4941826;29;20074;-74
2021/06/30 06:49:19;;;;;;;32.15;19.40;;;;;;;22.27;100.00;100189.88;4932035;29;20044;-74
2021/06/30 06:51:45;;;;;;;34.33;20.80;;;;;;;22.33;100.00;100201.81;4933502;29;20031;-74
2021/06/30 06:54:10;;;;;;;33.42;20.05;;;;;;;22.33;100.00;100201.81;4936017;29;20070;-73
2021/06/30 06:56:36;;;;;;;38.00;22.30;;;;;;;22.33;100.00;100205.34;4935642;29;20048;-74
2021/06/30 06:59:02;;;;;;;39.03;22.05;;;;;;;22.38;100.00;100207.50;4929850;29;20039;-74
2021/06/30 07:01:28;;;;;;;36.15;21.60;;;;;;;22.35;100.00;100213.91;4934852;29;20094;-74
2021/06/30 07:03:53;;;;;;;34.55;22.02;;;;;;;22.41;100.00;100214.09;4928577;29;20032;-74
2021/06/30 07:06:19;;;;;;;33.97;21.80;;;;;;;22.42;100.00;100215.59;4929783;29;20035;-74
2021/06/30 07:08:45;;;;;;;35.10;22.63;;;;;;;22.36;100.00;100211.91;4930689;29;20486;-73
2021/06/30 07:11:11;;;;;;;34.70;20.88;;;;;;;22.44;100.00;100224.94;4932453;29;20067;-74
2021/06/30 07:13:38;;;;;;;35.40;21.50;;;;;;;22.46;100.00;100224.47;4935817;29;20383;-74
2021/06/30 07:16:05;;;;;;;33.95;21.35;;;;;;;22.40;100.00;100227.03;4931496;29;20032;-74
2021/06/30 07:18:34;;;;;;;34.38;21.67;;;;;;;22.42;100.00;100226.59;4928492;29;20052;-74
2021/06/30 07:21:03;;;;;;;31.25;20.95;;;;;;;22.43;100.00;100226.13;4932926;29;20046;-73
2021/06/30 07:23:29;;;;;;;33.28;20.60;;;;;;;22.48;100.00;100230.28;4928726;29;20028;-71
2021/06/30 07:25:55;;;;;;;31.25;19.60;;;;;;;22.51;100.00;100231.38;4931497;29;20404;-71
2021/06/30 07:28:21;;;;;;;32.42;21.13;;;;;;;22.48;100.00;100233.03;4927789;29;20036;-71
2021/06/30 07:30:47;;;;;;;37.65;23.27;;;;;;;22.54;100.00;100231.25;4943799;28;20423;-71
2021/06/30 07:33:13;;;;;;;38.55;23.42;;;;;;;22.52;100.00;100235.66;4927709;29;20446;-73
2021/06/30 07:35:38;;;;;;;41.60;23.95;;;;;;;22.42;100.00;100234.81;4936633;23;20054;-73
2021/06/30 07:38:04;;;;;;;34.63;21.75;;;;;;;22.49;100.00;100245.56;4972119;28;20047;-74
2021/06/30 07:40:30;;;;;;;36.20;21.88;;;;;;;22.46;100.00;100238.22;4975766;28;20026;-74
2021/06/30 07:42:56;;;;;;;36.80;22.00;;;;;;;22.43;100.00;100239.84;4974254;28;20455;-73
2021/06/30 07:45:22;;;;;;;36.67;23.45;;;;;;;22.58;100.00;100239.41;4979067;28;20484;-74
2021/06/30 07:47:48;;;;;;;41.40;21.95;;;;;;;22.50;100.00;100236.09;4972770;28;20037;-74
2021/06/30 07:50:14;;;;;;;35.20;21.52;;;;;;;22.36;100.00;100234.63;4971281;28;20467;-73
2021/06/30 07:52:39;;;;;;;33.58;21.60;;;;;;;22.35;100.00;100240.56;4972326;28;20034;-73
2021/06/30 07:55:05;;;;;;;30.45;20.27;;;;;;;22.38;100.00;100232.19;4954550;28;20035;-73
2021/06/30 07:57:31;;;;;;;35.05;20.75;;;;;;;22.36;100.00;100244.84;4956231;28;20440;-73
2021/06/30 07:59:56;;;;;;;33.17;20.60;;;;;;;22.39;100.00;100236.50;4970197;28;20038;-74
2021/06/30 08:02:22;;;;;;;32.30;21.20;;;;;;;22.42;100.00;100232.06;4973769;28;20038;-71
2021/06/30 08:04:47;;;;;;;36.45;22.45;;;;;;;22.49;100.00;100231.06;4969518;28;20066;-75
2021/06/30 08:07:13;;;;;;;34.20;21.45;;;;;;;22.47;100.00;100222.50;4984389;28;20118;-71
2021/06/30 08:09:39;;;;;;;35.88;23.05;;;;;;;22.52;100.00;100232.91;4977342;28;20062;-71
2021/06/30 08:12:05;;;;;;;35.63;22.30;;;;;;;22.46;100.00;100229.97;4968925;28;20030;-72
2021/06/30 08:14:33;;;;;;;34.97;22.15;;;;;;;22.52;100.00;100230.94;4977062;28;20126;-70
2021/06/30 08:16:59;;;;;;;35.60;23.35;;;;;;;22.58;100.00;100229.19;4966467;28;20133;-70
2021/06/30 08:19:24;;;;;;;30.77;20.45;;;;;;;22.63;100.00;100225.84;4967901;28;20063;-71
2021/06/30 08:21:50;;;;;;;30.67;20.17;;;;;;;22.80;99.21;100232.69;4973452;28;20031;-71
2021/06/30 08:24:16;;;;;;;33.28;22.17;;;;;;;22.78;99.95;100239.84;4955093;28;20097;-70
2021/06/30 08:26:42;;;;;;;38.35;22.02;;;;;;;22.86;99.49;100238.38;4969522;28;20031;-72
2021/06/30 08:29:08;;;;;;;36.67;21.98;;;;;;;22.91;99.56;100235.81;4970430;28;20117;-73
2021/06/30 08:31:33;;;;;;;33.72;22.90;;;;;;;23.01;98.14;100228.41;4954363;28;20114;-71
2021/06/30 08:33:59;;;;;;;34.85;21.08;;;;;;;22.95;98.83;100236.47;4960079;28;20049;-71
2021/06/30 08:36:24;;;;;;;37.47;22.02;;;;;;;23.01;98.26;100229.16;4971284;28;20047;-71
2021/06/30 08:38:50;;;;;;;34.67;22.42;;;;;;;23.10;98.14;100236.69;4976670;28;20038;-74
2021/06/30 08:41:17;;;;;;;37.55;22.08;;;;;;;23.05;98.07;100248.25;4972695;28;20046;-71
2021/06/30 08:43:43;;;;;;;32.00;21.52;;;;;;;23.02;98.07;100244.44;4959616;28;20062;-71
2021/06/30 08:46:09;;;;;;;31.17;20.13;;;;;;;23.11;97.03;100243.72;4965063;28;20035;-71
2021/06/30 08:48:36;;;;;;;29.58;20.95;;;;;;;23.06;95.99;100247.81;4968467;28;20027;-72
2021/06/30 08:51:03;;;;;;;37.08;20.98;;;;;;;23.00;96.53;100244.09;4947984;28;20042;-72
2021/06/30 08:53:30;;;;;;;29.23;19.63;;;;;;;23.08;96.65;100239.88;4973667;28;20532;-72
2021/06/30 08:55:56;;;;;;;31.92;20.23;;;;;;;23.14;96.41;100240.06;4979749;28;20452;-72
2021/06/30 08:58:21;;;;;;;29.17;18.95;;;;;;;23.08;97.21;100234.38;4979231;28;20034;-75
2021/06/30 09:00:47;;;;;;;29.42;19.83;;;;;;;23.26;95.47;100247.47;4985833;28;20053;-74
2021/06/30 09:03:16;;;;;;;27.05;18.42;;;;;;;23.33;94.30;100243.69;4990320;28;20203;-75
2021/06/30 09:08:40;;;;;;;27.02;18.58;;;;;;;23.19;94.65;100245.72;4983803;28;20125;-74
2021/06/30 09:11:25;;;;;;;27.67;16.90;;;;;;;23.06;94.71;100253.31;4967942;28;20046;-74
2021/06/30 09:14:09;;;;;;;25.45;16.27;;;;;;;22.95;95.53;100252.94;4985513;28;20034;-74
2021/06/30 09:20:04;;;;;;;26.20;16.45;;;;;;;22.98;95.18;100254.78;4973833;28;20097;-74
2021/06/30 09:22:47;;;;;;;26.85;16.88;;;;;;;22.92;95.74;100259.31;4961038;28;20042;-75
2021/06/30 09:25:45;;;;;;;26.20;17.40;;;;;;;23.06;94.94;100260.78;4973992;28;20047;-74
2021/06/30 09:28:27;;;;;;;26.17;16.83;;;;;;;23.03;95.52;100254.22;4915535;28;20046;-73
2021/06/30 09:31:03;;;;;;;;;;;;;;;22.94;95.34;100261.59;4971680;28;20031;-72
2021/06/30 09:33:44;;;;;;;26.42;16.05;;;;;;;23.06;94.82;100266.28;4971409;28;19918;-75
2021/06/30 09:36:10;;;;;;;28.25;17.42;;;;;;;23.24;93.83;100260.88;4961437;28;20484;-73
2021/06/30 09:38:36;;;;;;;23.50;16.33;;;;;;;23.40;92.82;100263.44;4967387;28;20038;-73
2021/06/30 09:41:02;;;;;;;26.52;17.13;;;;;;;23.42;93.20;100258.25;4968502;28;20047;-73
2021/06/30 09:43:33;;;;;;;20.15;14.70;;;;;;;23.35;93.57;100266.00;4982532;28;20050;-74
2021/06/30 09:46:01;;;;;;;29.10;15.85;;;;;;;23.36;93.61;100265.56;4957659;28;20027;-75
2021/06/30 09:48:28;;;;;;;22.65;15.57;;;;;;;23.33;92.87;100263.69;4969272;28;20046;-75
2021/06/30 09:50:54;;;;;;;22.67;14.80;;;;;;;23.38;92.80;100259.59;4969674;28;20039;-75
2021/06/30 09:53:30;;;;;;;24.00;15.48;;;;;;;23.45;91.22;100262.84;4972929;28;20034;-75
2021/06/30 09:56:07;;;;;;;22.83;15.57;;;;;;;23.40;92.00;100257.94;4975172;28;20041;-73
2021/06/30 09:58:33;;;;;;;24.92;14.60;;;;;;;23.52;92.48;100259.81;4972210;28;22107;-75
2021/06/30 10:01:19;;;;;;;26.33;15.40;;;;;;;23.45;92.29;100260.09;4980474;28;20088;-73
2021/06/30 10:03:46;;;;;;;21.88;14.63;;;;;;;23.57;91.13;100264.72;4985105;28;20039;-72
2021/06/30 10:06:26;;;;;;;22.52;14.07;;;;;;;23.58;89.96;100270.97;4981986;28;20086;-75
2021/06/30 10:08:52;;;;;;;28.17;15.10;;;;;;;23.62;91.22;100255.88;4982869;28;20029;-74
2021/06/30 10:11:18;;;;;;;22.92;15.35;;;;;;;23.64;91.34;100253.44;4958133;28;20019;-73
2021/06/30 10:13:43;;;;;;;22.45;14.98;;;;;;;23.63;91.73;100248.41;4977305;28;20034;-75
2021/06/30 10:16:09;;;;;;;26.27;16.38;;;;;;;23.69;92.02;100250.09;4983701;28;20095;-74
2021/06/30 10:18:34;;;;;;;24.98;16.30;;;;;;;23.70;91.79;100243.38;4977058;28;20040;-75
2021/06/30 10:21:00;;;;;;;23.85;15.32;;;;;;;23.66;91.97;100251.00;4970734;28;20034;-75
2021/06/30 10:23:29;;;;;;;22.83;15.13;;;;;;;23.66;92.89;100250.22;4970861;28;20034;-75
2021/06/30 10:25:55;;;;;;;23.17;14.60;;;;;;;23.67;92.75;100243.53;4980912;28;20114;-75
2021/06/30 10:28:21;;;;;;;28.58;14.30;;;;;;;23.73;91.34;100236.22;4978537;28;20109;-75
2021/06/30 10:30:52;;;;;;;20.65;13.50;;;;;;;23.76;90.03;100227.81;4985154;28;21047;-71
2021/06/30 10:33:34;;;;;;;19.13;13.00;;;;;;;23.83;87.86;100229.50;4979621;28;20038;-73
2021/06/30 10:36:00;;;;;;;17.77;11.43;;;;;;;23.92;88.14;100221.28;4966696;28;20069;-71
2021/06/30 10:38:56;;;;;;;16.58;11.48;;;;;;;23.78;89.07;100222.63;4972060;28;20488;-75
2021/06/30 10:41:43;;;;;;;18.65;13.07;;;;;;;23.87;88.95;100219.09;4988238;28;20102;-72
2021/06/30 10:44:13;;;;;;;22.65;15.40;;;;;;;23.92;88.75;100216.53;4952069;28;20425;-72
2021/06/30 10:46:40;;;;;;;21.73;15.07;;;;;;;23.97;88.03;100218.69;4952453;28;20039;-74
2021/06/30 10:49:22;;;;;;;20.13;14.05;;;;;;;23.88;88.49;100217.91;4979767;28;20126;-71
2021/06/30 10:51:53;;;;;;;21.90;14.15;;;;;;;24.06;87.33;100220.72;4972903;28;20445;-72
2021/06/30 10:54:35;;;;;;;24.45;15.50;;;;;;;23.95;87.14;100212.88;4971256;28;20468;-72
2021/06/30 10:57:29;;;;;;;23.08;14.27;;;;;;;24.02;87.46;100207.09;4973728;28;20039;-73
2021/06/30 10:59:58;;;;;;;25.08;14.50;;;;;;;24.03;88.37;100207.84;4974167;28;20516;-72
2021/06/30 11:02:24;;;;;;;22.55;12.13;;;;;;;24.00;89.03;100209.50;4970849;28;20173;-71
2021/06/30 11:04:50;;;;;;;20.45;12.98;;;;;;;23.98;88.31;100211.19;4972024;28;20105;-72
2021/06/30 11:07:32;;;;;;;32.05;15.52;;;;;;;24.10;86.77;100202.81;4975559;28;20121;-72
2021/06/30 11:10:19;;;;;;;21.77;13.45;;;;;;;24.06;86.68;100206.97;4952534;28;20468;-76
2021/06/30 11:12:51;;;;;;;25.15;13.73;;;;;;;24.26;86.69;100215.50;4966791;28;20740;-73